createdAt,value
2023-05-20T00:00:12.865Z,102809.38
2023-05-20T00:05:15.187Z,102827.03
2023-05-20T00:10:16.901Z,102827.34
2023-05-20T00:15:21.041Z,102817.06
2023-05-20T00:20:22.782Z,102822.88
2023-05-20T00:25:26.979Z,102820.97
2023-05-20T00:30:31.245Z,102823.09
2023-05-20T00:35:33.272Z,102815.50
2023-05-20T00:40:35.185Z,102816.78
2023-05-20T00:45:42.275Z,102809.34
2023-05-20T00:50:44.219Z,102806.97
2023-05-20T00:55:51.248Z,102807.28
2023-05-20T01:00:53.187Z,102803.88
2023-05-20T01:06:13.877Z,102799.66
2023-05-20T01:11:21.672Z,102808.16
2023-05-20T01:16:25.230Z,102793.78
2023-05-20T01:21:27.655Z,102799.22
2023-05-20T01:26:29.623Z,102797.81
2023-05-20T01:31:34.090Z,102792.59
2023-05-20T01:36:36.353Z,102797.28
2023-05-20T01:41:38.105Z,102798.41
2023-05-20T01:46:39.933Z,102784.97
2023-05-20T01:51:44.031Z,102781.91
2023-05-20T01:56:52.230Z,102778.53
2023-05-20T02:01:56.084Z,102790.69
2023-05-20T02:07:00.199Z,102801.09
2023-05-20T02:12:16.245Z,102795.06
2023-05-20T02:17:20.254Z,102801.63
2023-05-20T02:22:22.001Z,102798.78
2023-05-20T02:27:26.134Z,102797.63
2023-05-20T02:32:29.962Z,102804.69
2023-05-20T02:37:38.999Z,102795.22
2023-05-20T02:42:41.368Z,102795.72
2023-05-20T02:47:43.349Z,102789.09
2023-05-20T02:52:45.686Z,102795.53
2023-05-20T02:57:47.795Z,102798.31
2023-05-20T03:02:51.852Z,102789.22
2023-05-20T03:07:56.074Z,102799.22
2023-05-20T03:12:57.799Z,102792.38
2023-05-20T03:17:59.554Z,102797.66
2023-05-20T03:23:02.093Z,102802.59
2023-05-20T03:28:04.069Z,102790.75
2023-05-20T03:33:06.229Z,102797.94
2023-05-20T03:38:08.365Z,102801.56
2023-05-20T03:43:14.963Z,102803.28
2023-05-20T03:48:21.864Z,102797.16
2023-05-20T03:53:24.165Z,102808.84
2023-05-20T03:58:26.424Z,102806.88
2023-05-20T04:03:31.520Z,102809.41
2023-05-20T04:08:36.652Z,102810.28
2023-05-20T04:13:43.544Z,102811.69
2023-05-20T04:18:46.156Z,102799.50
2023-05-20T04:23:53.105Z,102814.31
2023-05-20T04:28:59.130Z,102810.63
2023-05-20T04:34:02.761Z,102798.50
2023-05-20T04:39:08.210Z,102803.00
2023-05-20T04:44:10.320Z,102802.19
2023-05-20T04:49:13.103Z,102803.13
2023-05-20T04:54:18.178Z,102800.16
2023-05-20T04:59:20.535Z,102811.59
2023-05-20T05:04:24.665Z,102807.66
2023-05-20T05:09:26.457Z,102810.94
2023-05-20T05:14:31.135Z,102812.06
2023-05-20T05:19:35.270Z,102807.00
2023-05-20T05:24:41.335Z,102806.34
2023-05-20T05:29:43.039Z,102805.94
2023-05-20T05:34:45.281Z,102808.63
2023-05-20T05:39:51.877Z,102802.00
2023-05-20T05:44:53.592Z,102810.06
2023-05-20T05:49:59.019Z,102795.81
2023-05-20T05:55:09.338Z,102803.59
2023-05-20T06:00:15.125Z,102798.91
2023-05-20T06:05:22.652Z,102804.69
2023-05-20T06:10:28.112Z,102806.13
2023-05-20T06:15:33.214Z,102802.25
2023-05-20T06:20:35.187Z,102803.97
2023-05-20T06:25:37.934Z,102795.75
2023-05-20T06:30:45.859Z,102801.47
2023-05-20T06:35:47.790Z,102799.44
2023-05-20T06:40:49.997Z,102804.47
2023-05-20T06:45:58.188Z,102801.75
2023-05-20T06:51:07.269Z,102794.88
2023-05-20T06:56:12.638Z,102797.50
2023-05-20T07:01:16.584Z,102787.69
2023-05-20T07:06:22.119Z,102791.72
2023-05-20T07:11:27.019Z,102784.09
2023-05-20T07:16:34.987Z,102781.19
2023-05-20T07:21:37.168Z,102777.84
2023-05-20T07:26:57.579Z,102767.34
2023-05-20T07:32:05.405Z,102768.94
2023-05-20T07:37:12.812Z,102774.13
2023-05-20T07:42:15.405Z,102765.59
2023-05-20T07:47:20.893Z,102764.84
2023-05-20T07:52:22.891Z,102762.53
2023-05-20T07:57:26.961Z,102760.38
2023-05-20T08:02:31.981Z,102762.34
2023-05-20T08:07:34.857Z,102756.78
2023-05-20T08:12:36.766Z,102757.81
2023-05-20T08:17:38.963Z,102734.41
2023-05-20T08:22:41.751Z,102734.75
2023-05-20T08:27:46.595Z,102733.28
2023-05-20T08:32:49.011Z,102721.78
2023-05-20T08:37:50.994Z,102729.72
2023-05-20T08:42:55.189Z,102722.31
2023-05-20T08:48:01.190Z,102712.31
2023-05-20T08:53:03.036Z,102722.59
2023-05-20T08:58:09.573Z,102708.25
2023-05-20T09:03:13.700Z,102709.09
2023-05-20T09:08:15.918Z,102718.16
2023-05-20T09:13:17.723Z,102706.81
2023-05-20T09:18:22.279Z,102701.03
2023-05-20T09:23:27.699Z,102699.94
2023-05-20T09:28:31.861Z,102701.22
2023-05-20T09:33:35.678Z,102698.66
2023-05-20T09:38:45.081Z,102691.91
2023-05-20T09:43:49.627Z,102688.81
2023-05-20T09:48:59.806Z,102680.75
2023-05-20T09:54:03.675Z,102686.47
2023-05-20T09:59:05.814Z,102669.25
2023-05-20T10:04:08.989Z,102673.22
2023-05-20T10:09:25.137Z,102665.47
2023-05-20T10:14:36.207Z,102648.38
2023-05-20T10:19:40.207Z,102660.16
2023-05-20T10:24:46.018Z,102647.75
2023-05-20T10:29:57.159Z,102641.75
2023-05-20T10:35:01.327Z,102634.59
2023-05-20T10:40:18.868Z,102626.63
2023-05-20T10:45:32.896Z,102615.59
2023-05-20T10:50:40.375Z,102615.38
2023-05-20T10:55:49.577Z,102610.63
2023-05-20T11:00:54.450Z,102599.75
2023-05-20T11:05:58.678Z,102589.88
2023-05-20T11:11:02.688Z,102585.41
2023-05-20T11:16:05.314Z,102582.69
2023-05-20T11:21:07.138Z,102573.31
2023-05-20T11:26:11.362Z,102567.09
2023-05-20T11:31:15.808Z,102564.59
2023-05-20T11:36:27.428Z,102555.84
2023-05-20T11:41:30.177Z,102567.28
2023-05-20T11:46:46.094Z,102561.00
2023-05-20T11:51:50.187Z,102562.09
2023-05-20T11:56:56.709Z,102550.75
2023-05-20T12:01:58.445Z,102544.41
2023-05-20T12:07:04.195Z,102537.03
2023-05-20T12:12:06.345Z,102543.50
2023-05-20T12:17:10.352Z,102545.66
2023-05-20T12:22:14.488Z,102536.97
2023-05-20T12:27:18.749Z,102538.22
2023-05-20T12:32:21.157Z,102537.31
2023-05-20T12:37:27.792Z,102521.44
2023-05-20T12:42:29.503Z,102529.72
2023-05-20T12:47:34.999Z,102529.00
2023-05-20T12:52:36.775Z,102529.94
2023-05-20T12:57:40.749Z,102526.63
2023-05-20T13:02:45.559Z,102520.56
2023-05-20T13:07:49.588Z,102514.31
2023-05-20T13:12:51.375Z,102514.06
2023-05-20T13:17:55.443Z,102502.81
2023-05-20T13:22:57.325Z,102497.84
2023-05-20T13:28:01.617Z,102500.53
2023-05-20T13:33:05.893Z,102493.84
2023-05-20T13:38:07.724Z,102492.56
2023-05-20T13:43:11.683Z,102485.81
2023-05-20T13:48:16.219Z,102472.03
2023-05-20T13:53:17.942Z,102475.81
2023-05-20T13:58:20.048Z,102472.69
2023-05-20T14:03:24.225Z,102455.34
2023-05-20T14:08:26.122Z,102446.34
2023-05-20T14:13:30.091Z,102437.59
2023-05-20T14:18:36.695Z,102441.81
2023-05-20T14:23:41.103Z,102433.75
2023-05-20T14:28:42.895Z,102436.53
2023-05-20T14:33:47.098Z,102430.63
2023-05-20T14:38:51.452Z,102418.19
2023-05-20T14:43:56.172Z,102417.63
2023-05-20T14:49:02.838Z,102412.47
2023-05-20T14:54:10.441Z,102407.81
2023-05-20T14:59:12.185Z,102410.38
2023-05-20T15:04:18.658Z,102401.16
2023-05-20T15:09:22.701Z,102403.69
2023-05-20T15:14:24.410Z,102398.31
2023-05-20T15:19:26.396Z,102400.91
2023-05-20T15:24:30.642Z,102400.97
2023-05-20T15:29:32.536Z,102392.56
2023-05-20T15:34:36.483Z,102394.72
2023-05-20T15:39:41.221Z,102393.00
2023-05-20T15:44:42.990Z,102388.03
2023-05-20T15:49:47.337Z,102381.94
2023-05-20T15:54:53.901Z,102376.69
2023-05-20T15:59:56.118Z,102370.44
2023-05-20T16:04:58.090Z,102371.75
2023-05-20T16:10:02.957Z,102369.19
2023-05-20T16:15:09.811Z,102370.03
2023-05-20T16:20:11.917Z,102368.16
2023-05-20T16:25:14.205Z,102371.72
2023-05-20T16:30:18.765Z,102368.41
2023-05-20T16:35:22.890Z,102370.03
2023-05-20T16:40:24.714Z,102357.97
2023-05-20T16:45:31.652Z,102354.88
2023-05-20T16:50:36.282Z,102364.69
2023-05-20T16:55:40.717Z,102358.44
2023-05-20T17:00:42.529Z,102361.13
2023-05-20T17:05:46.880Z,102357.13
2023-05-20T17:10:52.466Z,102356.63
2023-05-20T17:15:58.274Z,102355.38
2023-05-20T17:21:04.620Z,102351.69
2023-05-20T17:26:06.515Z,102358.31
2023-05-20T17:31:13.677Z,102359.78
2023-05-20T17:36:18.083Z,102347.66
2023-05-20T17:41:23.190Z,102364.03
2023-05-20T17:46:28.163Z,102362.91
2023-05-20T17:51:29.905Z,102353.44
2023-05-20T17:56:33.990Z,102360.25
2023-05-20T18:01:37.432Z,102356.59
2023-05-20T18:06:41.789Z,102360.81
2023-05-20T18:11:46.011Z,102357.63
2023-05-20T18:16:50.227Z,102350.34
2023-05-20T18:21:57.057Z,102355.63
2023-05-20T18:27:03.554Z,102362.78
2023-05-20T18:32:08.971Z,102366.84
2023-05-20T18:37:13.057Z,102369.00
2023-05-20T18:42:14.858Z,102364.94
2023-05-20T18:47:21.577Z,102368.59
2023-05-20T18:52:28.001Z,102364.13
2023-05-20T18:57:32.212Z,102370.69
2023-05-20T19:02:38.682Z,102380.19
2023-05-20T19:07:42.818Z,102378.78
2023-05-20T19:12:44.691Z,102364.19
2023-05-20T19:17:48.946Z,102364.06
2023-05-20T19:22:51.865Z,102370.19
2023-05-20T19:27:56.237Z,102370.97
2023-05-20T19:33:00.351Z,102373.09
2023-05-20T19:38:05.889Z,102375.22
2023-05-20T19:43:12.689Z,102365.16
2023-05-20T19:48:14.472Z,102377.72
2023-05-20T19:53:21.208Z,102390.94
2023-05-20T19:58:25.506Z,102389.13
2023-05-20T20:03:27.200Z,102389.41
2023-05-20T20:08:28.915Z,102385.94
2023-05-20T20:13:30.707Z,102392.22
2023-05-20T20:18:32.821Z,102388.03
2023-05-20T20:23:37.012Z,102388.22
2023-05-20T20:28:40.998Z,102390.94
2023-05-20T20:33:42.784Z,102380.44
2023-05-20T20:38:46.863Z,102376.41
2023-05-20T20:43:54.562Z,102374.44
2023-05-20T20:48:56.429Z,102367.91
2023-05-20T20:54:03.009Z,102355.13
2023-05-20T20:59:08.829Z,102350.94
2023-05-20T21:04:17.278Z,102351.50
2023-05-20T21:09:22.463Z,102347.63
2023-05-20T21:14:25.278Z,102342.63
2023-05-20T21:19:27.213Z,102338.41
2023-05-20T21:24:29.054Z,102338.09
2023-05-20T21:29:31.512Z,102329.22
2023-05-20T21:34:33.647Z,102325.47
2023-05-20T21:39:35.922Z,102325.97
2023-05-20T21:44:37.957Z,102310.66
2023-05-20T21:49:39.793Z,102308.19
2023-05-20T21:54:41.898Z,102326.22
2023-05-20T21:59:43.630Z,102308.09
2023-05-20T22:04:49.223Z,102314.31
2023-05-20T22:09:51.263Z,102300.72
2023-05-20T22:14:55.239Z,102308.63
2023-05-20T22:19:56.954Z,102311.16
2023-05-20T22:24:58.771Z,102304.09
2023-05-20T22:30:06.171Z,102296.34
2023-05-20T22:35:13.454Z,102297.03
2023-05-20T22:40:15.731Z,102287.91
2023-05-20T22:45:22.795Z,102290.91
2023-05-20T22:50:35.743Z,102282.00
2023-05-20T22:55:38.849Z,102276.16
2023-05-20T23:00:44.401Z,102266.91
2023-05-20T23:05:48.993Z,102263.88
2023-05-20T23:10:52.992Z,102258.81
2023-05-20T23:15:54.780Z,102251.41
2023-05-20T23:20:56.540Z,102248.53
2023-05-20T23:26:01.667Z,102241.31
2023-05-20T23:31:09.288Z,102230.41
2023-05-20T23:36:13.408Z,102223.19
2023-05-20T23:41:15.831Z,102220.84
2023-05-20T23:46:18.709Z,102218.69
2023-05-20T23:51:20.729Z,102212.31
2023-05-20T23:56:22.545Z,102202.22
